createdAt,value
2022-08-31T00:01:04.589Z,25.22
2022-08-31T00:11:05.888Z,25.18
2022-08-31T00:21:07.796Z,25.13
2022-08-31T00:31:10.911Z,25.13
2022-08-31T00:41:12.314Z,25.18
2022-08-31T00:51:15.207Z,25.13
2022-08-31T01:01:20.180Z,25.10
2022-08-31T01:11:21.594Z,25.05
2022-08-31T01:21:22.873Z,25.06
2022-08-31T01:31:24.270Z,25.07
2022-08-31T01:41:25.560Z,25.04
2022-08-31T01:51:26.864Z,25.03
2022-08-31T02:01:32.670Z,25.07
2022-08-31T02:11:35.341Z,25.09
2022-08-31T02:21:36.933Z,25.02
2022-08-31T02:31:38.464Z,25.06
2022-08-31T02:41:39.805Z,25.03
2022-08-31T02:51:41.115Z,25.04
2022-08-31T03:01:42.544Z,24.98
2022-08-31T03:11:46.268Z,24.96
2022-08-31T03:21:47.542Z,24.90
2022-08-31T03:31:55.965Z,24.96
2022-08-31T03:41:57.260Z,24.90
2022-08-31T03:51:58.523Z,24.89
2022-08-31T04:01:59.898Z,24.88
2022-08-31T04:12:01.229Z,24.92
2022-08-31T04:22:02.692Z,24.88
2022-08-31T04:32:04.026Z,24.89
2022-08-31T04:42:05.334Z,24.85
2022-08-31T04:52:06.608Z,24.85
2022-08-31T05:02:07.930Z,24.86
2022-08-31T05:12:09.364Z,24.90
2022-08-31T05:22:10.675Z,24.88
2022-08-31T05:42:40.754Z,24.99
2022-08-31T05:52:42.133Z,25.02
2022-08-31T06:02:43.413Z,24.97
2022-08-31T06:12:44.658Z,24.96
2022-08-31T06:22:46.081Z,25.04
2022-08-31T06:32:47.365Z,25.06
2022-08-31T06:42:48.770Z,25.07
2022-08-31T06:52:50.104Z,25.11
2022-08-31T07:02:57.362Z,25.10
2022-08-31T07:12:59.418Z,25.12
2022-08-31T07:23:00.703Z,25.15
2022-08-31T07:33:02.142Z,25.16
2022-08-31T07:43:03.496Z,25.19
2022-08-31T07:53:05.109Z,25.22
2022-08-31T08:03:06.399Z,25.22
2022-08-31T08:13:07.697Z,25.26
2022-08-31T08:23:15.701Z,25.26
2022-08-31T08:33:21.665Z,25.27
2022-08-31T08:43:32.844Z,25.28
2022-08-31T08:53:37.661Z,25.29
2022-08-31T09:03:39.901Z,25.28
2022-08-31T09:13:56.303Z,25.29
2022-08-31T09:24:04.532Z,25.26
2022-08-31T09:34:12.589Z,25.23
2022-08-31T09:44:20.544Z,25.23
2022-08-31T09:54:29.132Z,25.24
2022-08-31T10:04:37.591Z,25.24
2022-08-31T10:14:45.565Z,25.24
2022-08-31T10:24:53.606Z,25.26
2022-08-31T10:35:01.589Z,25.27
2022-08-31T10:45:09.565Z,25.27
2022-08-31T10:55:17.535Z,25.25
2022-08-31T11:05:25.554Z,25.28
2022-08-31T11:15:33.569Z,25.28
2022-08-31T11:25:42.604Z,25.28
2022-08-31T11:35:50.538Z,25.28
2022-08-31T11:45:58.596Z,25.30
2022-08-31T11:56:06.559Z,25.30
2022-08-31T12:06:15.607Z,25.31
2022-08-31T12:16:24.489Z,25.34
2022-08-31T12:26:32.575Z,25.37
2022-08-31T12:36:42.234Z,25.36
2022-08-31T12:46:49.661Z,25.36
2022-08-31T12:56:57.630Z,25.35
2022-08-31T13:07:05.619Z,25.36
2022-08-31T13:17:14.265Z,25.37
2022-08-31T13:27:22.608Z,25.41
2022-08-31T13:37:30.631Z,25.41
2022-08-31T13:47:57.500Z,25.43
2022-08-31T13:57:59.279Z,25.44
2022-08-31T14:08:00.532Z,25.45
2022-08-31T14:28:28.401Z,25.47
2022-08-31T15:09:51.618Z,25.44
2022-08-31T15:19:59.757Z,25.50
2022-08-31T15:30:08.717Z,25.56
2022-08-31T15:40:23.352Z,25.54
2022-08-31T15:50:26.163Z,25.56
2022-08-31T16:11:01.785Z,25.56
2022-08-31T16:21:03.233Z,25.55
2022-08-31T16:41:33.462Z,25.55
2022-08-31T16:51:34.953Z,25.56
2022-08-31T17:01:36.437Z,25.52
2022-08-31T17:11:48.161Z,25.54
2022-08-31T17:21:50.217Z,25.54
2022-08-31T17:31:51.684Z,25.52
2022-08-31T17:41:55.824Z,25.54
2022-08-31T17:52:12.235Z,25.53
2022-08-31T18:02:24.558Z,25.51
2022-08-31T18:22:54.708Z,25.51
2022-08-31T18:32:55.986Z,25.49
2022-08-31T18:42:57.504Z,25.49
2022-08-31T18:52:58.928Z,25.48
2022-08-31T19:03:00.223Z,25.47
2022-08-31T19:13:01.608Z,25.47
2022-08-31T19:23:03.001Z,25.44
2022-08-31T19:33:04.451Z,25.45
2022-08-31T19:53:27.764Z,25.39
2022-08-31T20:03:29.533Z,25.41
2022-08-31T20:13:30.843Z,25.41
2022-08-31T20:23:32.259Z,25.39
2022-08-31T20:33:33.693Z,25.40
2022-08-31T20:43:35.072Z,25.39
2022-08-31T20:53:42.750Z,25.40
2022-08-31T21:03:44.806Z,25.36
2022-08-31T21:13:47.801Z,25.38
2022-08-31T21:23:49.072Z,25.35
2022-08-31T21:33:50.459Z,25.37
2022-08-31T21:43:51.763Z,25.33
2022-08-31T21:53:53.036Z,25.32
2022-08-31T22:03:54.356Z,25.27
2022-08-31T22:13:58.911Z,25.28
2022-08-31T22:24:00.233Z,25.30
2022-08-31T22:34:01.530Z,25.25
2022-08-31T22:44:02.815Z,25.16
2022-08-31T22:54:04.101Z,25.18
2022-08-31T23:04:05.484Z,25.13
2022-08-31T23:14:07.719Z,25.14
2022-08-31T23:24:09.076Z,25.19
2022-08-31T23:34:10.367Z,25.12
2022-08-31T23:44:11.681Z,25.11
2022-08-31T23:54:12.989Z,25.10
